sensor_id;sensor_type;location;lat;lon;timestamp;pressure;altitude;pressure_sealevel;temperature;humidity
41703;BME280;861;48.808;9.006;2023-01-06T00:01:33;97711.91;;;10.55;87.26
41703;BME280;861;48.808;9.006;2023-01-06T00:04:01;97715.00;;;10.53;87.41
41703;BME280;861;48.808;9.006;2023-01-06T00:06:30;97713.25;;;10.68;87.64
41703;BME280;861;48.808;9.006;2023-01-06T00:09:02;97707.50;;;10.76;87.13
41703;BME280;861;48.808;9.006;2023-01-06T00:11:31;97710.00;;;10.89;85.36
41703;BME280;861;48.808;9.006;2023-01-06T00:13:58;97711.94;;;10.88;86.62
41703;BME280;861;48.808;9.006;2023-01-06T00:16:25;97715.03;;;10.57;87.94
41703;BME280;861;48.808;9.006;2023-01-06T00:18:59;97707.38;;;10.66;87.25
41703;BME280;861;48.808;9.006;2023-01-06T00:21:27;97705.53;;;10.73;86.15
41703;BME280;861;48.808;9.006;2023-01-06T00:23:55;97700.50;;;10.75;86.13
41703;BME280;861;48.808;9.006;2023-01-06T00:26:22;97704.88;;;10.83;85.96
41703;BME280;861;48.808;9.006;2023-01-06T00:28:56;97706.22;;;10.97;85.98
41703;BME280;861;48.808;9.006;2023-01-06T00:31:23;97695.00;;;11.05;85.86
41703;BME280;861;48.808;9.006;2023-01-06T00:33:49;97691.50;;;11.05;85.24
41703;BME280;861;48.808;9.006;2023-01-06T00:36:15;97695.22;;;10.90;86.18
41703;BME280;861;48.808;9.006;2023-01-06T00:38:42;97685.13;;;10.90;85.92
41703;BME280;861;48.808;9.006;2023-01-06T00:41:12;97689.81;;;10.93;86.95
41703;BME280;861;48.808;9.006;2023-01-06T00:44:00;97685.13;;;10.94;86.09
41703;BME280;861;48.808;9.006;2023-01-06T00:46:30;97678.59;;;10.68;87.43
41703;BME280;861;48.808;9.006;2023-01-06T00:49:01;97669.84;;;10.82;87.71
41703;BME280;861;48.808;9.006;2023-01-06T00:51:29;97670.91;;;10.74;87.30
41703;BME280;861;48.808;9.006;2023-01-06T00:53:59;97670.25;;;10.84;86.75
41703;BME280;861;48.808;9.006;2023-01-06T00:56:25;97679.66;;;10.60;88.30
41703;BME280;861;48.808;9.006;2023-01-06T00:58:51;97671.16;;;10.62;87.83
41703;BME280;861;48.808;9.006;2023-01-06T01:01:18;97674.59;;;10.59;88.41
41703;BME280;861;48.808;9.006;2023-01-06T01:03:44;97673.41;;;10.56;88.80
41703;BME280;861;48.808;9.006;2023-01-06T01:06:11;97670.63;;;10.53;88.59
41703;BME280;861;48.808;9.006;2023-01-06T01:08:37;97678.19;;;10.37;89.12
41703;BME280;861;48.808;9.006;2023-01-06T01:11:11;97674.41;;;10.45;89.03
41703;BME280;861;48.808;9.006;2023-01-06T01:13:57;97679.19;;;10.25;90.37
41703;BME280;861;48.808;9.006;2023-01-06T01:16:23;97677.47;;;10.40;89.35
41703;BME280;861;48.808;9.006;2023-01-06T01:18:50;97679.97;;;10.52;88.60
41703;BME280;861;48.808;9.006;2023-01-06T01:21:16;97672.03;;;10.69;87.52
41703;BME280;861;48.808;9.006;2023-01-06T01:23:42;97674.06;;;10.76;86.91
41703;BME280;861;48.808;9.006;2023-01-06T01:26:08;97677.91;;;10.75;87.26
41703;BME280;861;48.808;9.006;2023-01-06T01:28:34;97674.88;;;10.50;87.91
41703;BME280;861;48.808;9.006;2023-01-06T01:31:02;97677.97;;;10.49;88.08
41703;BME280;861;48.808;9.006;2023-01-06T01:33:30;97671.97;;;10.36;89.12
41703;BME280;861;48.808;9.006;2023-01-06T01:36:04;97664.00;;;10.50;88.98
41703;BME280;861;48.808;9.006;2023-01-06T01:38:31;97663.78;;;10.66;88.94
41703;BME280;861;48.808;9.006;2023-01-06T01:40:57;97675.81;;;10.61;88.47
41703;BME280;861;48.808;9.006;2023-01-06T01:43:23;97663.53;;;10.74;87.10
41703;BME280;861;48.808;9.006;2023-01-06T01:45:54;97662.09;;;10.88;87.51
41703;BME280;861;48.808;9.006;2023-01-06T01:48:34;97661.72;;;10.86;86.98
41703;BME280;861;48.808;9.006;2023-01-06T01:51:10;97658.97;;;10.52;88.55
41703;BME280;861;48.808;9.006;2023-01-06T01:53:49;97664.91;;;10.61;87.66
41703;BME280;861;48.808;9.006;2023-01-06T01:56:28;97667.59;;;10.58;88.04
41703;BME280;861;48.808;9.006;2023-01-06T01:59:07;97668.69;;;10.53;88.08
41703;BME280;861;48.808;9.006;2023-01-06T02:01:36;97663.31;;;10.60;88.65
41703;BME280;861;48.808;9.006;2023-01-06T02:04:04;97657.00;;;10.53;89.04
41703;BME280;861;48.808;9.006;2023-01-06T02:06:31;97668.44;;;10.65;88.12
41703;BME280;861;48.808;9.006;2023-01-06T02:09:26;97656.44;;;10.70;88.29
41703;BME280;861;48.808;9.006;2023-01-06T02:11:58;97654.28;;;10.53;88.06
41703;BME280;861;48.808;9.006;2023-01-06T02:14:27;97655.44;;;10.52;89.41
41703;BME280;861;48.808;9.006;2023-01-06T02:20:21;97653.00;;;10.73;87.96
41703;BME280;861;48.808;9.006;2023-01-06T02:26:52;97652.66;;;10.78;86.90
41703;BME280;861;48.808;9.006;2023-01-06T02:36:28;97635.56;;;11.18;84.65
41703;BME280;861;48.808;9.006;2023-01-06T02:39:42;97636.28;;;11.11;86.33
41703;BME280;861;48.808;9.006;2023-01-06T02:47:12;97646.19;;;11.26;84.77
41703;BME280;861;48.808;9.006;2023-01-06T02:53:24;97644.44;;;11.08;84.77
41703;BME280;861;48.808;9.006;2023-01-06T02:56:02;97648.78;;;11.16;85.27
41703;BME280;861;48.808;9.006;2023-01-06T02:59:17;97642.09;;;11.10;84.94
41703;BME280;861;48.808;9.006;2023-01-06T03:01:53;97638.63;;;11.13;85.42
41703;BME280;861;48.808;9.006;2023-01-06T03:04:32;97632.78;;;11.11;85.75
41703;BME280;861;48.808;9.006;2023-01-06T03:07:06;97632.28;;;10.98;86.12
41703;BME280;861;48.808;9.006;2023-01-06T03:09:37;97633.19;;;11.13;85.29
41703;BME280;861;48.808;9.006;2023-01-06T03:12:38;97619.84;;;11.41;83.80
41703;BME280;861;48.808;9.006;2023-01-06T03:15:10;97617.84;;;11.34;83.71
41703;BME280;861;48.808;9.006;2023-01-06T03:17:37;97613.44;;;11.23;84.47
41703;BME280;861;48.808;9.006;2023-01-06T03:20:04;97617.00;;;11.30;83.84
41703;BME280;861;48.808;9.006;2023-01-06T03:22:34;97620.22;;;11.43;83.68
41703;BME280;861;48.808;9.006;2023-01-06T03:25:08;97611.31;;;11.46;82.35
41703;BME280;861;48.808;9.006;2023-01-06T03:27:35;97601.56;;;11.45;82.47
41703;BME280;861;48.808;9.006;2023-01-06T03:30:08;97592.28;;;11.53;82.06
41703;BME280;861;48.808;9.006;2023-01-06T03:32:50;97597.53;;;11.28;82.91
41703;BME280;861;48.808;9.006;2023-01-06T03:36:04;97609.53;;;11.24;83.03
41703;BME280;861;48.808;9.006;2023-01-06T03:39:14;97618.66;;;11.02;83.29
41703;BME280;861;48.808;9.006;2023-01-06T03:41:59;97613.47;;;10.90;83.80
41703;BME280;861;48.808;9.006;2023-01-06T03:48:55;97612.06;;;11.03;83.52
41703;BME280;861;48.808;9.006;2023-01-06T03:55:04;97622.25;;;10.72;86.20
41703;BME280;861;48.808;9.006;2023-01-06T03:57:53;97618.41;;;10.77;85.25
41703;BME280;861;48.808;9.006;2023-01-06T04:00:34;97618.84;;;10.82;84.77
41703;BME280;861;48.808;9.006;2023-01-06T04:03:13;97620.16;;;10.62;85.25
41703;BME280;861;48.808;9.006;2023-01-06T04:05:41;97615.59;;;10.70;85.75
41703;BME280;861;48.808;9.006;2023-01-06T04:08:07;97621.50;;;10.75;85.09
41703;BME280;861;48.808;9.006;2023-01-06T04:10:33;97625.19;;;10.90;84.67
41703;BME280;861;48.808;9.006;2023-01-06T04:13:00;97621.00;;;11.03;84.51
41703;BME280;861;48.808;9.006;2023-01-06T04:15:27;97625.63;;;10.96;83.90
41703;BME280;861;48.808;9.006;2023-01-06T04:17:57;97614.56;;;11.18;83.37
41703;BME280;861;48.808;9.006;2023-01-06T04:20:29;97608.06;;;11.33;82.39
41703;BME280;861;48.808;9.006;2023-01-06T04:22:57;97607.66;;;11.28;82.79
41703;BME280;861;48.808;9.006;2023-01-06T04:25:24;97597.28;;;11.44;81.86
41703;BME280;861;48.808;9.006;2023-01-06T04:27:51;97599.94;;;11.37;81.58
41703;BME280;861;48.808;9.006;2023-01-06T04:30:18;97590.50;;;11.27;81.89
41703;BME280;861;48.808;9.006;2023-01-06T04:32:44;97598.69;;;11.27;83.01
41703;BME280;861;48.808;9.006;2023-01-06T04:35:10;97601.34;;;11.20;83.08
41703;BME280;861;48.808;9.006;2023-01-06T04:37:37;97608.66;;;11.13;82.96
41703;BME280;861;48.808;9.006;2023-01-06T04:40:04;97599.13;;;11.33;81.71
41703;BME280;861;48.808;9.006;2023-01-06T04:42:33;97601.81;;;11.29;82.04
41703;BME280;861;48.808;9.006;2023-01-06T04:45:21;97594.38;;;11.26;82.15
41703;BME280;861;48.808;9.006;2023-01-06T04:47:47;97590.09;;;11.25;82.52
41703;BME280;861;48.808;9.006;2023-01-06T04:50:14;97589.66;;;11.20;83.23
41703;BME280;861;48.808;9.006;2023-01-06T04:52:40;97587.78;;;11.27;83.26
41703;BME280;861;48.808;9.006;2023-01-06T04:55:07;97584.19;;;11.20;83.01
41703;BME280;861;48.808;9.006;2023-01-06T04:57:34;97581.22;;;11.35;83.31
41703;BME280;861;48.808;9.006;2023-01-06T05:00:01;97573.53;;;11.48;82.03
41703;BME280;861;48.808;9.006;2023-01-06T05:02:27;97578.53;;;11.39;83.29
41703;BME280;861;48.808;9.006;2023-01-06T05:04:53;97578.66;;;11.53;81.68
41703;BME280;861;48.808;9.006;2023-01-06T05:07:19;97575.84;;;11.46;81.92
41703;BME280;861;48.808;9.006;2023-01-06T05:09:46;97572.66;;;11.37;82.57
41703;BME280;861;48.808;9.006;2023-01-06T05:12:12;97566.03;;;11.38;82.99
41703;BME280;861;48.808;9.006;2023-01-06T05:14:38;97576.94;;;11.38;82.56
41703;BME280;861;48.808;9.006;2023-01-06T05:17:04;97568.47;;;11.46;82.75
41703;BME280;861;48.808;9.006;2023-01-06T05:19:30;97580.16;;;11.47;82.21
41703;BME280;861;48.808;9.006;2023-01-06T05:21:56;97583.06;;;11.64;81.28
41703;BME280;861;48.808;9.006;2023-01-06T05:24:22;97584.41;;;11.41;81.87
41703;BME280;861;48.808;9.006;2023-01-06T05:26:48;97573.88;;;11.43;82.48
41703;BME280;861;48.808;9.006;2023-01-06T05:29:15;97575.47;;;11.44;82.71
41703;BME280;861;48.808;9.006;2023-01-06T05:31:42;97570.47;;;11.53;81.35
41703;BME280;861;48.808;9.006;2023-01-06T05:34:10;97576.44;;;11.65;80.57
41703;BME280;861;48.808;9.006;2023-01-06T05:36:36;97570.84;;;11.51;81.06
41703;BME280;861;48.808;9.006;2023-01-06T05:39:03;97573.47;;;11.37;82.04
41703;BME280;861;48.808;9.006;2023-01-06T05:41:29;97570.44;;;11.49;82.15
41703;BME280;861;48.808;9.006;2023-01-06T05:43:57;97571.91;;;11.40;82.42
41703;BME280;861;48.808;9.006;2023-01-06T05:46:23;97571.56;;;11.45;82.27
41703;BME280;861;48.808;9.006;2023-01-06T05:48:49;97576.75;;;11.60;81.60
41703;BME280;861;48.808;9.006;2023-01-06T05:51:17;97570.13;;;11.61;81.02
41703;BME280;861;48.808;9.006;2023-01-06T05:53:47;97558.22;;;11.33;81.63
41703;BME280;861;48.808;9.006;2023-01-06T05:56:18;97554.97;;;10.76;83.68
41703;BME280;861;48.808;9.006;2023-01-06T05:58:51;97562.78;;;10.45;86.07
41703;BME280;861;48.808;9.006;2023-01-06T06:01:30;97570.56;;;10.43;85.95
41703;BME280;861;48.808;9.006;2023-01-06T06:03:58;97561.75;;;10.56;85.45
41703;BME280;861;48.808;9.006;2023-01-06T06:06:28;97570.44;;;10.69;84.89
41703;BME280;861;48.808;9.006;2023-01-06T06:08:57;97574.34;;;10.71;84.59
41703;BME280;861;48.808;9.006;2023-01-06T06:11:24;97576.94;;;10.57;84.94
41703;BME280;861;48.808;9.006;2023-01-06T06:13:55;97579.69;;;10.28;86.31
41703;BME280;861;48.808;9.006;2023-01-06T06:16:26;97583.19;;;10.28;86.37
41703;BME280;861;48.808;9.006;2023-01-06T06:18:57;97579.22;;;9.96;88.22
41703;BME280;861;48.808;9.006;2023-01-06T06:21:28;97583.84;;;9.92;88.87
41703;BME280;861;48.808;9.006;2023-01-06T06:23:58;97578.72;;;10.13;87.61
41703;BME280;861;48.808;9.006;2023-01-06T06:26:26;97579.06;;;10.08;87.65
41703;BME280;861;48.808;9.006;2023-01-06T06:28:53;97584.53;;;10.12;87.42
41703;BME280;861;48.808;9.006;2023-01-06T06:31:27;97582.34;;;10.21;87.44
41703;BME280;861;48.808;9.006;2023-01-06T06:33:59;97581.97;;;10.22;87.34
41703;BME280;861;48.808;9.006;2023-01-06T06:36:28;97580.38;;;10.21;87.83
41703;BME280;861;48.808;9.006;2023-01-06T06:38:57;97582.50;;;10.35;86.61
41703;BME280;861;48.808;9.006;2023-01-06T06:41:25;97586.28;;;10.27;87.28
41703;BME280;861;48.808;9.006;2023-01-06T06:43:51;97588.91;;;10.20;87.46
41703;BME280;861;48.808;9.006;2023-01-06T06:46:19;97592.78;;;10.19;88.26
41703;BME280;861;48.808;9.006;2023-01-06T06:48:46;97596.75;;;10.25;88.07
41703;BME280;861;48.808;9.006;2023-01-06T06:51:19;97589.81;;;10.27;88.02
41703;BME280;861;48.808;9.006;2023-01-06T06:53:47;97596.50;;;10.07;89.16
41703;BME280;861;48.808;9.006;2023-01-06T06:56:17;97598.03;;;10.34;87.83
41703;BME280;861;48.808;9.006;2023-01-06T06:58:45;97599.13;;;10.59;86.69
41703;BME280;861;48.808;9.006;2023-01-06T07:01:16;97598.09;;;10.71;85.95
41703;BME280;861;48.808;9.006;2023-01-06T07:03:45;97601.53;;;10.64;85.65
41703;BME280;861;48.808;9.006;2023-01-06T07:06:22;97597.06;;;10.49;87.22
41703;BME280;861;48.808;9.006;2023-01-06T07:08:50;97604.31;;;10.68;86.13
41703;BME280;861;48.808;9.006;2023-01-06T07:11:17;97614.03;;;10.69;85.75
41703;BME280;861;48.808;9.006;2023-01-06T07:13:44;97612.75;;;10.59;86.23
41703;BME280;861;48.808;9.006;2023-01-06T07:16:11;97616.59;;;10.55;86.75
41703;BME280;861;48.808;9.006;2023-01-06T07:18:38;97622.13;;;10.62;87.37
41703;BME280;861;48.808;9.006;2023-01-06T07:21:06;97627.28;;;10.70;87.41
41703;BME280;861;48.808;9.006;2023-01-06T07:23:33;97631.66;;;10.78;88.60
41703;BME280;861;48.808;9.006;2023-01-06T07:26:02;97632.13;;;10.84;88.31
41703;BME280;861;48.808;9.006;2023-01-06T07:28:31;97643.88;;;10.92;88.47
41703;BME280;861;48.808;9.006;2023-01-06T07:30:59;97641.75;;;10.74;90.14
41703;BME280;861;48.808;9.006;2023-01-06T07:33:25;97640.09;;;10.70;91.22
41703;BME280;861;48.808;9.006;2023-01-06T07:35:55;97636.78;;;10.83;90.38
41703;BME280;861;48.808;9.006;2023-01-06T07:38:23;97641.53;;;10.90;90.99
41703;BME280;861;48.808;9.006;2023-01-06T07:40:51;97647.44;;;10.99;90.50
41703;BME280;861;48.808;9.006;2023-01-06T07:43:18;97657.16;;;10.97;90.24
41703;BME280;861;48.808;9.006;2023-01-06T07:45:48;97649.38;;;10.95;90.59
41703;BME280;861;48.808;9.006;2023-01-06T07:48:16;97650.94;;;10.96;90.85
41703;BME280;861;48.808;9.006;2023-01-06T07:50:42;97650.41;;;10.83;91.37
41703;BME280;861;48.808;9.006;2023-01-06T07:53:09;97659.81;;;10.90;91.82
41703;BME280;861;48.808;9.006;2023-01-06T07:55:37;97659.84;;;10.93;91.64
41703;BME280;861;48.808;9.006;2023-01-06T07:58:08;97670.78;;;10.97;91.39
41703;BME280;861;48.808;9.006;2023-01-06T08:00:36;97668.03;;;10.93;92.20
41703;BME280;861;48.808;9.006;2023-01-06T08:03:06;97681.31;;;10.98;93.17
41703;BME280;861;48.808;9.006;2023-01-06T08:05:39;97681.50;;;11.16;90.99
41703;BME280;861;48.808;9.006;2023-01-06T08:08:11;97677.09;;;11.41;89.54
41703;BME280;861;48.808;9.006;2023-01-06T08:10:42;97686.47;;;11.43;89.11
41703;BME280;861;48.808;9.006;2023-01-06T08:13:10;97676.41;;;11.51;88.83
41703;BME280;861;48.808;9.006;2023-01-06T08:15:38;97670.66;;;11.59;85.16
41703;BME280;861;48.808;9.006;2023-01-06T08:18:05;97684.25;;;11.19;85.51
41703;BME280;861;48.808;9.006;2023-01-06T08:20:32;97686.34;;;10.96;85.96
41703;BME280;861;48.808;9.006;2023-01-06T08:23:00;97685.34;;;10.78;86.75
41703;BME280;861;48.808;9.006;2023-01-06T08:25:27;97686.22;;;10.56;87.36
41703;BME280;861;48.808;9.006;2023-01-06T08:27:53;97694.06;;;10.61;87.07
41703;BME280;861;48.808;9.006;2023-01-06T08:30:19;97690.09;;;10.55;87.41
41703;BME280;861;48.808;9.006;2023-01-06T08:32:48;97691.72;;;10.59;87.08
41703;BME280;861;48.808;9.006;2023-01-06T08:35:15;97688.38;;;10.43;87.18
41703;BME280;861;48.808;9.006;2023-01-06T08:37:41;97689.66;;;10.23;88.32
41703;BME280;861;48.808;9.006;2023-01-06T08:40:08;97689.72;;;10.27;87.77
41703;BME280;861;48.808;9.006;2023-01-06T08:42:35;97697.22;;;10.33;87.48
41703;BME280;861;48.808;9.006;2023-01-06T08:45:01;97691.28;;;10.28;87.31
41703;BME280;861;48.808;9.006;2023-01-06T08:47:27;97692.72;;;10.48;85.20
41703;BME280;861;48.808;9.006;2023-01-06T08:49:53;97698.75;;;10.34;87.01
41703;BME280;861;48.808;9.006;2023-01-06T08:52:20;97705.47;;;10.40;87.26
41703;BME280;861;48.808;9.006;2023-01-06T08:54:46;97695.97;;;10.57;85.19
41703;BME280;861;48.808;9.006;2023-01-06T08:57:12;97695.78;;;10.43;85.37
41703;BME280;861;48.808;9.006;2023-01-06T08:59:40;97703.84;;;10.62;84.04
41703;BME280;861;48.808;9.006;2023-01-06T09:02:10;97708.44;;;10.58;84.41
41703;BME280;861;48.808;9.006;2023-01-06T09:04:36;97706.34;;;10.48;84.82
41703;BME280;861;48.808;9.006;2023-01-06T09:07:02;97710.97;;;10.44;86.23
41703;BME280;861;48.808;9.006;2023-01-06T09:09:29;97707.75;;;10.38;86.55
41703;BME280;861;48.808;9.006;2023-01-06T09:11:55;97706.31;;;10.74;84.77
41703;BME280;861;48.808;9.006;2023-01-06T09:14:21;97700.03;;;10.70;85.67
41703;BME280;861;48.808;9.006;2023-01-06T09:16:47;97704.50;;;10.85;83.57
41703;BME280;861;48.808;9.006;2023-01-06T09:19:14;97691.84;;;10.70;84.02
41703;BME280;861;48.808;9.006;2023-01-06T09:21:41;97699.53;;;10.61;84.42
41703;BME280;861;48.808;9.006;2023-01-06T09:24:14;97709.34;;;10.99;82.87
41703;BME280;861;48.808;9.006;2023-01-06T09:26:40;97712.63;;;10.81;82.96
41703;BME280;861;48.808;9.006;2023-01-06T09:29:06;97714.84;;;10.72;83.02
41703;BME280;861;48.808;9.006;2023-01-06T09:31:33;97717.50;;;10.99;82.01
41703;BME280;861;48.808;9.006;2023-01-06T09:33:59;97720.06;;;10.84;83.96
41703;BME280;861;48.808;9.006;2023-01-06T09:36:25;97729.22;;;10.99;82.54
41703;BME280;861;48.808;9.006;2023-01-06T09:38:51;97736.38;;;11.11;82.62
41703;BME280;861;48.808;9.006;2023-01-06T09:45:19;97730.31;;;11.28;80.90
41703;BME280;861;48.808;9.006;2023-01-06T09:48:07;97729.31;;;11.43;80.70
41703;BME280;861;48.808;9.006;2023-01-06T09:50:55;97732.38;;;11.38;80.43
41703;BME280;861;48.808;9.006;2023-01-06T09:53:46;97733.72;;;11.54;80.31
41703;BME280;861;48.808;9.006;2023-01-06T09:56:23;97730.09;;;11.43;80.29
41703;BME280;861;48.808;9.006;2023-01-06T09:59:11;97720.75;;;11.41;80.30
41703;BME280;861;48.808;9.006;2023-01-06T10:01:49;97729.63;;;11.38;81.22
41703;BME280;861;48.808;9.006;2023-01-06T10:04:27;97723.84;;;11.39;80.40
41703;BME280;861;48.808;9.006;2023-01-06T10:07:50;97716.75;;;11.35;81.40
41703;BME280;861;48.808;9.006;2023-01-06T10:20:53;97684.03;;;11.31;81.06
41703;BME280;861;48.808;9.006;2023-01-06T10:24:25;97675.97;;;11.85;77.95
41703;BME280;861;48.808;9.006;2023-01-06T10:27:15;97672.03;;;11.79;78.20
41703;BME280;861;48.808;9.006;2023-01-06T10:30:31;97673.69;;;11.94;77.46
41703;BME280;861;48.808;9.006;2023-01-06T10:33:04;97669.47;;;12.00;78.00
41703;BME280;861;48.808;9.006;2023-01-06T10:35:32;97661.34;;;12.11;76.93
41703;BME280;861;48.808;9.006;2023-01-06T10:38:09;97658.69;;;12.18;77.52
41703;BME280;861;48.808;9.006;2023-01-06T10:40:38;97659.25;;;11.90;79.46
41703;BME280;861;48.808;9.006;2023-01-06T10:43:13;97651.81;;;11.87;80.47
41703;BME280;861;48.808;9.006;2023-01-06T10:45:43;97640.31;;;12.11;77.97
41703;BME280;861;48.808;9.006;2023-01-06T10:48:23;97643.13;;;12.25;79.25
41703;BME280;861;48.808;9.006;2023-01-06T10:50:55;97652.22;;;12.51;75.08
41703;BME280;861;48.808;9.006;2023-01-06T10:53:21;97649.03;;;12.38;74.07
41703;BME280;861;48.808;9.006;2023-01-06T10:58:52;97654.47;;;11.77;76.76
41703;BME280;861;48.808;9.006;2023-01-06T11:01:28;97655.31;;;11.84;76.03
41703;BME280;861;48.808;9.006;2023-01-06T11:04:12;97655.31;;;11.84;76.43
41703;BME280;861;48.808;9.006;2023-01-06T11:07:01;97655.78;;;11.97;75.99
41703;BME280;861;48.808;9.006;2023-01-06T11:09:44;97643.28;;;11.92;77.26
41703;BME280;861;48.808;9.006;2023-01-06T11:12:24;97642.94;;;12.01;76.73
41703;BME280;861;48.808;9.006;2023-01-06T11:15:05;97646.53;;;12.12;75.93
41703;BME280;861;48.808;9.006;2023-01-06T11:17:33;97651.59;;;12.13;76.58
41703;BME280;861;48.808;9.006;2023-01-06T11:20:29;97644.25;;;12.17;74.82
41703;BME280;861;48.808;9.006;2023-01-06T11:23:22;97645.53;;;12.41;73.42
41703;BME280;861;48.808;9.006;2023-01-06T11:28:46;97639.72;;;12.50;74.31
41703;BME280;861;48.808;9.006;2023-01-06T11:31:27;97632.28;;;12.43;72.97
41703;BME280;861;48.808;9.006;2023-01-06T11:34:01;97631.06;;;12.37;74.22
41703;BME280;861;48.808;9.006;2023-01-06T11:36:32;97631.94;;;12.52;72.97
41703;BME280;861;48.808;9.006;2023-01-06T11:39:12;97627.66;;;12.51;71.80
41703;BME280;861;48.808;9.006;2023-01-06T11:41:48;97618.09;;;12.13;72.37
41703;BME280;861;48.808;9.006;2023-01-06T11:44:39;97618.38;;;12.01;73.82
41703;BME280;861;48.808;9.006;2023-01-06T11:47:24;97623.84;;;12.01;75.32
41703;BME280;861;48.808;9.006;2023-01-06T11:50:00;97628.41;;;12.48;74.89
41703;BME280;861;48.808;9.006;2023-01-06T11:52:31;97620.31;;;12.72;72.37
41703;BME280;861;48.808;9.006;2023-01-06T11:58:15;97619.06;;;12.52;73.40
41703;BME280;861;48.808;9.006;2023-01-06T12:01:06;97621.91;;;12.73;73.32
41703;BME280;861;48.808;9.006;2023-01-06T12:03:45;97625.78;;;12.72;72.12
41703;BME280;861;48.808;9.006;2023-01-06T12:06:31;97616.47;;;12.84;71.70
41703;BME280;861;48.808;9.006;2023-01-06T12:09:30;97622.72;;;12.84;71.92
41703;BME280;861;48.808;9.006;2023-01-06T12:12:11;97613.28;;;12.71;70.85
41703;BME280;861;48.808;9.006;2023-01-06T12:14:46;97610.97;;;12.73;71.89
41703;BME280;861;48.808;9.006;2023-01-06T12:17:42;97613.25;;;12.64;72.34
41703;BME280;861;48.808;9.006;2023-01-06T12:20:28;97609.78;;;12.74;70.64
41703;BME280;861;48.808;9.006;2023-01-06T12:23:16;97604.72;;;12.83;69.40
41703;BME280;861;48.808;9.006;2023-01-06T12:25:59;97601.56;;;12.64;71.24
41703;BME280;861;48.808;9.006;2023-01-06T12:28:52;97595.69;;;12.62;70.41
41703;BME280;861;48.808;9.006;2023-01-06T12:34:24;97590.63;;;12.64;69.85
41703;BME280;861;48.808;9.006;2023-01-06T12:37:29;97581.25;;;12.65;71.42
41703;BME280;861;48.808;9.006;2023-01-06T12:40:35;97593.34;;;12.67;69.54
41703;BME280;861;48.808;9.006;2023-01-06T12:43:24;97588.72;;;12.75;69.38
41703;BME280;861;48.808;9.006;2023-01-06T12:46:17;97585.56;;;12.62;69.95
41703;BME280;861;48.808;9.006;2023-01-06T12:48:58;97581.22;;;12.58;70.31
41703;BME280;861;48.808;9.006;2023-01-06T12:51:53;97590.19;;;12.48;70.34
41703;BME280;861;48.808;9.006;2023-01-06T12:54:32;97592.91;;;12.48;70.08
41703;BME280;861;48.808;9.006;2023-01-06T12:57:43;97589.47;;;12.68;71.00
41703;BME280;861;48.808;9.006;2023-01-06T13:00:46;97583.56;;;12.59;72.15
41703;BME280;861;48.808;9.006;2023-01-06T13:07:18;97584.81;;;12.79;69.12
41703;BME280;861;48.808;9.006;2023-01-06T13:10:25;97581.69;;;12.81;68.43
41703;BME280;861;48.808;9.006;2023-01-06T13:16:55;97595.72;;;12.65;70.20
41703;BME280;861;48.808;9.006;2023-01-06T13:19:55;97602.72;;;12.63;70.53
41703;BME280;861;48.808;9.006;2023-01-06T13:26:35;97596.19;;;12.92;68.22
41703;BME280;861;48.808;9.006;2023-01-06T13:30:49;97592.25;;;12.82;68.52
41703;BME280;861;48.808;9.006;2023-01-06T13:40:20;97592.22;;;12.68;68.85
41703;BME280;861;48.808;9.006;2023-01-06T13:43:12;97585.97;;;12.78;68.66
41703;BME280;861;48.808;9.006;2023-01-06T13:45:53;97584.78;;;12.69;69.16
41703;BME280;861;48.808;9.006;2023-01-06T13:48:39;97597.69;;;12.75;67.97
41703;BME280;861;48.808;9.006;2023-01-06T13:51:27;97588.69;;;12.68;68.91
41703;BME280;861;48.808;9.006;2023-01-06T13:53:57;97584.72;;;12.51;69.11
41703;BME280;861;48.808;9.006;2023-01-06T13:56:32;97595.63;;;12.48;69.53
41703;BME280;861;48.808;9.006;2023-01-06T13:59:22;97594.44;;;12.45;70.28
41703;BME280;861;48.808;9.006;2023-01-06T14:01:51;97604.53;;;12.34;70.30
41703;BME280;861;48.808;9.006;2023-01-06T14:07:08;97603.38;;;12.38;71.44
41703;BME280;861;48.808;9.006;2023-01-06T14:09:48;97599.84;;;12.31;71.67
41703;BME280;861;48.808;9.006;2023-01-06T14:12:24;97605.75;;;12.40;71.10
41703;BME280;861;48.808;9.006;2023-01-06T14:15:05;97606.91;;;12.43;70.68
41703;BME280;861;48.808;9.006;2023-01-06T14:17:43;97607.31;;;12.48;70.27
41703;BME280;861;48.808;9.006;2023-01-06T14:20:36;97610.81;;;12.38;71.12
41703;BME280;861;48.808;9.006;2023-01-06T14:23:19;97611.59;;;12.42;70.63
41703;BME280;861;48.808;9.006;2023-01-06T14:25:55;97618.59;;;12.36;70.66
41703;BME280;861;48.808;9.006;2023-01-06T14:28:33;97622.03;;;12.22;71.07
41703;BME280;861;48.808;9.006;2023-01-06T14:34:00;97625.28;;;12.46;70.58
41703;BME280;861;48.808;9.006;2023-01-06T14:36:34;97624.06;;;12.36;70.62
41703;BME280;861;48.808;9.006;2023-01-06T14:39:09;97625.22;;;12.35;70.55
41703;BME280;861;48.808;9.006;2023-01-06T14:44:52;97623.78;;;12.59;69.82
41703;BME280;861;48.808;9.006;2023-01-06T14:47:53;97624.97;;;12.65;69.08
41703;BME280;861;48.808;9.006;2023-01-06T14:50:42;97626.19;;;12.74;71.13
41703;BME280;861;48.808;9.006;2023-01-06T14:53:37;97627.78;;;12.86;69.58
41703;BME280;861;48.808;9.006;2023-01-06T14:56:21;97629.03;;;13.02;68.92
41703;BME280;861;48.808;9.006;2023-01-06T14:59:04;97628.25;;;13.05;69.12
41703;BME280;861;48.808;9.006;2023-01-06T15:01:43;97635.72;;;13.15;68.30
41703;BME280;861;48.808;9.006;2023-01-06T15:04:33;97628.94;;;12.81;68.61
41703;BME280;861;48.808;9.006;2023-01-06T15:07:21;97640.97;;;12.66;69.28
41703;BME280;861;48.808;9.006;2023-01-06T15:09:50;97645.22;;;12.57;70.04
41703;BME280;861;48.808;9.006;2023-01-06T15:12:28;97645.94;;;12.40;69.82
41703;BME280;861;48.808;9.006;2023-01-06T15:18:01;97637.19;;;12.16;70.76
41703;BME280;861;48.808;9.006;2023-01-06T15:20:38;97647.06;;;12.31;69.76
41703;BME280;861;48.808;9.006;2023-01-06T15:23:16;97647.28;;;12.09;71.19
41703;BME280;861;48.808;9.006;2023-01-06T15:25:52;97641.44;;;12.07;70.95
41703;BME280;861;48.808;9.006;2023-01-06T15:28:34;97646.53;;;12.08;70.92
41703;BME280;861;48.808;9.006;2023-01-06T15:31:02;97636.72;;;12.04;71.30